Time;durP1;ratioP1;P1;durP2;ratioP2;P2;SDS_P1;SDS_P2;PMS_P1;PMS_P2;Temp;Humidity;BMP_temperature;BMP_pressure;BME280_temperature;BME280_humidity;BME280_pressure;Samples;Min_cycle;Max_cycle;Signal;HPM_P1;HPM_P2
2023/08/20 00:02:02;;;;;;;8.77;5.82;;;;;;;21.05;100.00;96289.16;4990541;28;24436;-78
2023/08/20 00:04:31;;;;;;;9.80;5.45;;;;;;;20.99;100.00;96287.97;4991425;28;24460;-78
2023/08/20 00:06:58;;;;;;;8.93;5.88;;;;;;;20.97;100.00;96288.09;4990963;28;25006;-78
2023/08/20 00:09:27;;;;;;;6.63;4.90;;;;;;;20.95;100.00;96294.47;4990576;28;24441;-77
2023/08/20 00:11:53;;;;;;;11.73;5.80;;;;;;;20.95;100.00;96286.59;4991359;28;24544;-79
2023/08/20 00:14:20;;;;;;;7.40;5.07;;;;;;;21.12;100.00;96283.16;4991059;28;24436;-78
2023/08/20 00:16:48;;;;;;;7.45;6.15;;;;;;;20.91;100.00;96287.84;4991011;28;24448;-78
2023/08/20 00:19:15;;;;;;;7.83;5.73;;;;;;;20.75;100.00;96288.50;4977721;28;24433;-78
2023/08/20 00:21:42;;;;;;;7.85;5.35;;;;;;;20.69;100.00;96289.94;4991089;28;24848;-78
2023/08/20 00:24:10;;;;;;;7.55;6.05;;;;;;;20.61;100.00;96291.63;4991025;28;24456;-78
2023/08/20 00:26:38;;;;;;;8.05;5.78;;;;;;;20.68;100.00;96293.53;4974779;28;24839;-78
2023/08/20 00:29:05;;;;;;;10.93;5.97;;;;;;;20.73;100.00;96299.19;4990069;28;24433;-78
2023/08/20 00:31:31;;;;;;;9.70;6.00;;;;;;;20.83;100.00;96291.22;4990998;28;24448;-77
2023/08/20 00:33:58;;;;;;;7.00;5.70;;;;;;;20.73;100.00;96288.66;4991012;28;24441;-78
2023/08/20 00:36:24;;;;;;;7.77;5.70;;;;;;;20.75;100.00;96293.78;4990812;28;24503;-78
2023/08/20 00:38:51;;;;;;;6.10;5.25;;;;;;;20.68;100.00;96288.25;4990735;28;24433;-78
2023/08/20 00:41:18;;;;;;;11.18;5.93;;;;;;;20.46;100.00;96297.31;4990923;28;24441;-78
2023/08/20 00:43:46;;;;;;;12.23;6.15;;;;;;;20.45;100.00;96293.03;4990490;28;24457;-78
2023/08/20 00:46:13;;;;;;;6.90;6.05;;;;;;;20.42;100.00;96297.75;4991009;28;24635;-79
2023/08/20 00:48:39;;;;;;;10.23;6.57;;;;;;;20.40;100.00;96297.91;4990318;28;25079;-78
2023/08/20 00:51:06;;;;;;;9.48;7.88;;;;;;;20.49;100.00;96294.44;4990673;28;24449;-78
2023/08/20 00:53:32;;;;;;;10.80;7.15;;;;;;;20.52;100.00;96299.41;4990879;28;24983;-78
2023/08/20 00:55:59;;;;;;;9.43;6.50;;;;;;;20.53;100.00;96297.59;4990653;28;24488;-78
2023/08/20 00:58:25;;;;;;;7.10;6.32;;;;;;;20.58;100.00;96298.03;4989646;28;24456;-79
2023/08/20 01:00:53;;;;;;;9.65;6.97;;;;;;;20.60;100.00;96298.69;4990464;28;24464;-78
2023/08/20 01:03:20;;;;;;;7.90;6.30;;;;;;;20.61;100.00;96296.88;4990407;28;24444;-78
2023/08/20 01:05:51;;;;;;;10.80;6.50;;;;;;;20.66;100.00;96299.94;4990669;28;25040;-78
2023/08/20 01:08:30;;;;;;;7.45;6.35;;;;;;;20.68;100.00;96305.84;4990153;28;24444;-78
2023/08/20 01:11:02;;;;;;;7.85;5.70;;;;;;;20.77;100.00;96299.72;4990200;28;24444;-78
2023/08/20 01:13:28;;;;;;;8.30;6.53;;;;;;;20.70;100.00;96309.19;4990549;28;24433;-78
2023/08/20 01:15:57;;;;;;;8.00;6.38;;;;;;;20.57;100.00;96303.41;4990596;28;24437;-78
2023/08/20 01:18:25;;;;;;;16.73;7.45;;;;;;;20.50;100.00;96303.97;4989826;28;25030;-78
2023/08/20 01:20:57;;;;;;;8.13;6.75;;;;;;;20.46;100.00;96305.22;4975606;28;24437;-78
2023/08/20 01:23:48;;;;;;;12.75;7.43;;;;;;;20.41;100.00;96301.38;4989916;28;24444;-79
2023/08/20 01:26:27;;;;;;;11.45;7.10;;;;;;;20.40;100.00;96299.72;4990504;28;24444;-78
2023/08/20 01:28:56;;;;;;;8.35;6.68;;;;;;;20.46;100.00;96301.75;4990177;28;24433;-78
2023/08/20 01:31:23;;;;;;;11.40;7.03;;;;;;;20.57;100.00;96300.78;4992544;28;24448;-78
2023/08/20 01:33:50;;;;;;;8.77;6.68;;;;;;;20.52;100.00;96299.41;4993937;28;24475;-78
2023/08/20 01:36:18;;;;;;;9.88;6.20;;;;;;;20.52;100.00;96302.03;4994111;28;24433;-78
2023/08/20 01:38:44;;;;;;;8.55;6.57;;;;;;;20.52;100.00;96298.59;4993541;28;25014;-79
2023/08/20 01:41:11;;;;;;;8.13;5.43;;;;;;;20.45;100.00;96298.31;4994520;28;24440;-78
2023/08/20 01:43:37;;;;;;;8.13;5.75;;;;;;;20.33;100.00;96290.75;4993565;28;24440;-78
2023/08/20 01:46:05;;;;;;;7.47;5.80;;;;;;;20.21;100.00;96293.56;4993522;28;24816;-78
2023/08/20 01:48:32;;;;;;;8.00;5.95;;;;;;;20.19;100.00;96292.03;4993522;28;24444;-78
2023/08/20 01:50:58;;;;;;;9.40;6.55;;;;;;;20.09;100.00;96296.47;4993737;28;24445;-79
2023/08/20 01:53:25;;;;;;;8.13;6.60;;;;;;;20.09;100.00;96296.47;4993767;28;24437;-78
2023/08/20 01:55:51;;;;;;;7.75;6.50;;;;;;;20.06;100.00;96292.34;4993535;28;24436;-78
2023/08/20 01:58:18;;;;;;;7.30;6.20;;;;;;;20.03;100.00;96297.88;4993366;28;24533;-78
2023/08/20 02:00:46;;;;;;;7.97;6.63;;;;;;;19.98;100.00;96300.91;4993246;28;24523;-78
2023/08/20 02:03:13;;;;;;;7.97;6.53;;;;;;;20.03;100.00;96298.72;4993414;28;24443;-78
2023/08/20 02:05:40;;;;;;;8.18;6.70;;;;;;;20.11;100.00;96297.19;4993171;28;25140;-78
2023/08/20 02:08:06;;;;;;;9.40;5.90;;;;;;;20.04;100.00;96303.00;4992946;28;24443;-78
2023/08/20 02:10:33;;;;;;;8.40;6.53;;;;;;;19.99;100.00;96305.22;4993072;28;24448;-78
2023/08/20 02:12:59;;;;;;;8.68;7.32;;;;;;;20.02;100.00;96315.47;4993324;28;24444;-78
2023/08/20 02:15:26;;;;;;;9.47;6.70;;;;;;;20.09;100.00;96310.44;4993137;28;24433;-78
2023/08/20 02:17:52;;;;;;;9.25;7.38;;;;;;;20.15;100.00;96309.06;4993301;28;24464;-78
2023/08/20 02:20:20;;;;;;;12.07;7.03;;;;;;;20.13;100.00;96311.00;4992769;28;24813;-78
2023/08/20 02:22:47;;;;;;;9.10;7.35;;;;;;;20.11;100.00;96312.94;4992518;28;24441;-79
2023/08/20 02:25:13;;;;;;;11.93;7.70;;;;;;;20.10;100.00;96313.91;4993180;28;25007;-78
2023/08/20 02:27:40;;;;;;;7.05;6.35;;;;;;;20.04;100.00;96313.50;4992876;28;24437;-78
2023/08/20 02:30:08;;;;;;;8.32;6.47;;;;;;;20.00;100.00;96314.75;4992494;28;24451;-78
2023/08/20 02:32:34;;;;;;;7.35;6.25;;;;;;;19.96;100.00;96309.94;4992804;28;24456;-78
2023/08/20 02:35:01;;;;;;;9.02;6.32;;;;;;;19.93;100.00;96311.03;4993014;28;24848;-78
2023/08/20 02:37:28;;;;;;;7.55;6.25;;;;;;;19.89;100.00;96307.03;4993115;28;24432;-78
2023/08/20 02:39:55;;;;;;;10.95;6.35;;;;;;;19.92;100.00;96312.03;4992517;28;24452;-79
2023/08/20 02:42:22;;;;;;;6.85;5.90;;;;;;;19.78;100.00;96315.06;4992156;28;24437;-78
2023/08/20 02:44:48;;;;;;;7.00;6.00;;;;;;;19.61;100.00;96318.34;4992446;28;24452;-78
2023/08/20 02:47:15;;;;;;;9.50;5.90;;;;;;;19.69;100.00;96315.91;4992748;28;24441;-78
2023/08/20 02:49:41;;;;;;;6.72;5.95;;;;;;;19.78;100.00;96315.91;5003659;28;24444;-78
2023/08/20 02:52:08;;;;;;;6.55;5.32;;;;;;;19.80;100.00;96315.75;5013251;28;24428;-78
2023/08/20 02:54:36;;;;;;;8.05;5.55;;;;;;;19.80;100.00;96310.50;4999475;28;24458;-78
2023/08/20 02:57:02;;;;;;;8.60;5.55;;;;;;;19.77;100.00;96301.09;4994941;28;24473;-78
2023/08/20 02:59:29;;;;;;;11.02;5.53;;;;;;;19.78;100.00;96294.06;4994996;28;25023;-78
2023/08/20 03:01:55;;;;;;;11.80;6.25;;;;;;;19.91;100.00;96299.84;4995814;28;24437;-78
2023/08/20 03:04:22;;;;;;;6.95;5.75;;;;;;;19.88;100.00;96286.97;4994727;28;25015;-78
2023/08/20 03:06:48;;;;;;;11.27;6.47;;;;;;;19.89;100.00;96278.13;4994991;28;24476;-78
2023/08/20 03:09:15;;;;;;;10.65;6.13;;;;;;;19.68;100.00;96269.56;4994543;28;24435;-78
2023/08/20 03:11:43;;;;;;;6.53;5.43;;;;;;;19.56;100.00;96268.88;4995023;28;24441;-78
2023/08/20 03:14:10;;;;;;;6.70;5.75;;;;;;;19.41;100.00;96272.88;4995470;28;25202;-78
2023/08/20 03:16:36;;;;;;;8.00;6.35;;;;;;;19.45;100.00;96274.25;4996428;28;24433;-78
2023/08/20 03:19:03;;;;;;;9.20;5.82;;;;;;;19.51;100.00;96274.53;4995629;28;24448;-78
2023/08/20 03:21:30;;;;;;;6.43;5.18;;;;;;;19.50;100.00;96278.13;4997344;28;24840;-78
2023/08/20 03:23:56;;;;;;;8.85;5.40;;;;;;;19.38;100.00;96291.53;4995751;28;24437;-78
2023/08/20 03:26:22;;;;;;;7.68;5.35;;;;;;;19.31;100.00;96280.75;4995389;28;24452;-78
2023/08/20 03:28:50;;;;;;;8.00;5.27;;;;;;;19.28;100.00;96279.25;4995799;28;24893;-78
2023/08/20 03:31:17;;;;;;;7.57;5.87;;;;;;;19.31;100.00;96286.81;4993159;28;24457;-78
2023/08/20 03:33:43;;;;;;;6.00;5.13;;;;;;;19.29;100.00;96280.06;4994836;28;24441;-78
2023/08/20 03:36:10;;;;;;;11.93;6.45;;;;;;;19.05;100.00;96278.66;4995038;28;24437;-78
2023/08/20 03:38:36;;;;;;;6.93;5.97;;;;;;;18.91;100.00;96289.56;4994191;28;24443;-78
2023/08/20 03:41:03;;;;;;;7.55;6.35;;;;;;;18.86;100.00;96287.31;4995240;28;24456;-78
2023/08/20 03:43:29;;;;;;;7.07;5.30;;;;;;;18.98;100.00;96282.78;4994457;28;24444;-78
2023/08/20 03:45:57;;;;;;;9.48;5.88;;;;;;;19.06;100.00;96285.59;4995163;28;24808;-78
2023/08/20 03:48:24;;;;;;;6.35;5.72;;;;;;;19.12;100.00;96271.06;4995144;28;24444;-78
2023/08/20 03:50:50;;;;;;;7.10;5.18;;;;;;;19.14;100.00;96278.81;4995468;28;24436;-78
2023/08/20 03:53:17;;;;;;;7.07;5.60;;;;;;;19.03;100.00;96270.09;4993741;28;24440;-78
2023/08/20 03:55:48;;;;;;;8.35;6.07;;;;;;;19.03;100.00;96277.97;4994938;28;24443;-78
2023/08/20 03:58:15;;;;;;;6.20;5.05;;;;;;;19.06;100.00;96274.25;4993693;28;24444;-79
2023/08/20 04:00:41;;;;;;;7.60;5.57;;;;;;;19.11;100.00;96274.66;5022166;23;24581;-77
2023/08/20 04:03:09;;;;;;;9.27;5.50;;;;;;;19.16;100.00;96282.94;5048841;28;24441;-77
2023/08/20 04:05:37;;;;;;;6.60;5.55;;;;;;;19.19;100.00;96279.22;5050440;28;24510;-77
2023/08/20 04:08:04;;;;;;;7.32;5.70;;;;;;;19.27;100.00;96290.69;5050631;28;24438;-77
2023/08/20 04:10:31;;;;;;;8.37;5.60;;;;;;;19.25;100.00;96297.91;5042994;28;24436;-77
2023/08/20 04:12:57;;;;;;;9.32;6.30;;;;;;;19.13;100.00;96298.16;5030421;28;24435;-77
2023/08/20 04:15:24;;;;;;;9.45;6.55;;;;;;;19.01;100.00;96302.69;5030356;28;24432;-77
2023/08/20 04:17:50;;;;;;;8.67;6.43;;;;;;;18.99;100.00;96302.84;5030183;28;24435;-77
2023/08/20 04:20:18;;;;;;;11.10;5.90;;;;;;;19.10;100.00;96307.16;5029936;28;24437;-77
2023/08/20 04:22:44;;;;;;;7.22;5.50;;;;;;;19.17;100.00;96304.78;5029275;28;24803;-77
2023/08/20 04:25:12;;;;;;;12.88;5.63;;;;;;;19.17;100.00;96312.66;5030053;28;24452;-77
2023/08/20 04:27:38;;;;;;;6.43;5.30;;;;;;;19.20;100.00;96312.41;5030305;28;24536;-77
2023/08/20 04:30:06;;;;;;;6.88;5.32;;;;;;;19.14;100.00;96311.16;5029835;28;24994;-77
2023/08/20 04:32:33;;;;;;;6.05;5.32;;;;;;;19.13;100.00;96314.72;5029983;28;24435;-77
2023/08/20 04:34:59;;;;;;;15.32;5.68;;;;;;;19.10;100.00;96317.66;5029901;28;24527;-77
2023/08/20 04:37:27;;;;;;;10.60;6.25;;;;;;;19.34;100.00;96302.31;5030092;28;24428;-77
2023/08/20 04:39:54;;;;;;;8.73;5.72;;;;;;;19.36;100.00;96301.38;5029997;28;24443;-77
2023/08/20 04:42:20;;;;;;;5.95;5.38;;;;;;;19.08;100.00;96304.63;5029842;28;24447;-77
2023/08/20 04:44:47;;;;;;;10.27;5.78;;;;;;;18.81;100.00;96304.44;5030110;28;24807;-77
2023/08/20 04:47:13;;;;;;;11.32;6.82;;;;;;;18.63;100.00;96306.84;5029586;28;24443;-77
2023/08/20 04:49:40;;;;;;;8.23;6.65;;;;;;;18.56;100.00;96317.03;5029648;28;24447;-77
2023/08/20 04:52:06;;;;;;;10.18;6.78;;;;;;;18.56;100.00;96306.53;5029750;28;24804;-77
2023/08/20 04:54:34;;;;;;;7.13;6.03;;;;;;;18.71;100.00;96307.03;5029722;28;24439;-77
2023/08/20 04:57:01;;;;;;;8.07;6.30;;;;;;;18.75;100.00;96300.56;5030084;28;24432;-77
2023/08/20 04:59:27;;;;;;;8.10;6.30;;;;;;;18.76;100.00;96306.63;5029245;28;24436;-77
2023/08/20 05:01:54;;;;;;;7.60;6.20;;;;;;;18.67;100.00;96305.63;5028720;28;24800;-77
2023/08/20 05:04:21;;;;;;;6.95;6.05;;;;;;;18.71;100.00;96309.66;5030399;28;24436;-77
2023/08/20 05:06:47;;;;;;;7.57;5.75;;;;;;;18.81;100.00;96301.81;5033023;28;24451;-77
2023/08/20 05:09:14;;;;;;;7.93;5.90;;;;;;;18.86;100.00;96300.44;5033511;28;24432;-76
2023/08/20 05:11:41;;;;;;;8.80;5.53;;;;;;;18.78;100.00;96304.72;5031433;28;24454;-77
2023/08/20 05:14:08;;;;;;;10.23;6.68;;;;;;;18.68;100.00;96314.31;5033163;28;24443;-76
2023/08/20 05:16:34;;;;;;;10.13;6.88;;;;;;;18.64;100.00;96311.13;5032863;28;24443;-76
2023/08/20 05:19:01;;;;;;;11.00;7.45;;;;;;;18.86;100.00;96315.38;5033093;28;24439;-76
2023/08/20 05:21:27;;;;;;;8.43;6.65;;;;;;;19.06;100.00;96308.38;5032109;28;24451;-79
2023/08/20 05:23:54;;;;;;;7.93;7.10;;;;;;;19.36;100.00;96307.44;5035984;28;24788;-79
2023/08/20 05:26:20;;;;;;;11.38;7.60;;;;;;;19.59;100.00;96314.09;5033849;28;24444;-78
2023/08/20 05:28:48;;;;;;;7.60;6.80;;;;;;;19.58;100.00;96315.06;5029432;28;24979;-79
2023/08/20 05:31:15;;;;;;;10.30;6.32;;;;;;;19.59;100.00;96319.34;5034193;28;24450;-78
2023/08/20 05:33:41;;;;;;;9.23;6.57;;;;;;;19.67;100.00;96325.72;5033481;28;24432;-78
2023/08/20 05:36:08;;;;;;;8.25;7.05;;;;;;;19.84;100.00;96327.66;5034221;28;24435;-79
2023/08/20 05:38:34;;;;;;;9.02;7.25;;;;;;;20.05;100.00;96332.75;5033883;28;24990;-79
2023/08/20 05:41:00;;;;;;;9.75;7.18;;;;;;;20.13;100.00;96334.66;5034060;28;24440;-79
2023/08/20 05:43:27;;;;;;;8.95;6.55;;;;;;;20.34;100.00;96331.84;5034026;28;24448;-78
2023/08/20 05:45:55;;;;;;;10.35;6.50;;;;;;;20.46;100.00;96328.06;5034268;28;24451;-78
2023/08/20 05:48:21;;;;;;;7.90;6.73;;;;;;;20.49;100.00;96333.06;5033595;28;24969;-79
2023/08/20 05:50:48;;;;;;;10.60;7.47;;;;;;;20.59;100.00;96331.25;5033788;28;24462;-79
2023/08/20 05:53:14;;;;;;;12.18;7.40;;;;;;;20.64;100.00;96318.47;5034342;28;24423;-78
2023/08/20 05:55:41;;;;;;;9.57;7.53;;;;;;;20.63;100.00;96326.53;5034544;28;24407;-79
2023/08/20 05:58:07;;;;;;;9.52;6.88;;;;;;;20.52;100.00;96330.16;5034228;28;24412;-79
2023/08/20 06:00:34;;;;;;;11.53;6.97;;;;;;;20.33;100.00;96338.91;5033377;28;24427;-79
2023/08/20 06:03:01;;;;;;;10.75;6.30;;;;;;;20.33;100.00;96338.09;5034071;28;24440;-78
2023/08/20 06:05:28;;;;;;;8.52;6.38;;;;;;;20.41;100.00;96340.84;5034232;28;24819;-78
2023/08/20 06:07:54;;;;;;;16.83;7.00;;;;;;;20.37;100.00;96337.66;5033820;28;24436;-79
2023/08/20 06:10:21;;;;;;;8.38;6.03;;;;;;;20.69;100.00;96342.56;5033607;28;24434;-79
2023/08/20 06:12:47;;;;;;;11.80;6.82;;;;;;;20.63;100.00;96347.59;5034478;28;24423;-80
2023/08/20 06:15:14;;;;;;;7.27;6.50;;;;;;;20.66;100.00;96350.75;5041288;28;24988;-78
2023/08/20 06:17:41;;;;;;;9.60;7.30;;;;;;;20.68;100.00;96351.41;5032045;28;24422;-78
2023/08/20 06:20:11;;;;;;;9.40;6.93;;;;;;;20.73;100.00;96354.47;5035023;28;24434;-77
2023/08/20 06:22:38;;;;;;;9.40;6.77;;;;;;;20.96;100.00;96349.66;5043757;28;24446;-77
2023/08/20 06:25:05;;;;;;;9.73;7.00;;;;;;;21.15;100.00;96346.09;5033349;28;24419;-78
2023/08/20 06:27:32;;;;;;;21.45;6.40;;;;;;;21.16;100.00;96354.81;5032945;28;24436;-77
2023/08/20 06:32:52;;;;;;;8.38;6.88;;;;;;;21.06;100.00;96349.59;5085818;23;24450;-77
2023/08/20 06:35:19;;;;;;;7.45;6.40;;;;;;;21.15;100.00;96350.53;4973718;28;24464;-74
2023/08/20 06:37:46;;;;;;;12.00;6.88;;;;;;;21.15;100.00;96356.63;4973246;28;24433;-73
2023/08/20 06:40:13;;;;;;;11.55;7.18;;;;;;;21.12;100.00;96356.09;4973363;28;24448;-74
2023/08/20 06:42:40;;;;;;;11.82;6.72;;;;;;;21.12;100.00;96358.72;4966995;28;25192;-74
2023/08/20 06:45:07;;;;;;;7.18;6.47;;;;;;;21.23;100.00;96356.69;4973621;28;24434;-74
2023/08/20 06:47:34;;;;;;;7.63;6.65;;;;;;;21.22;100.00;96356.88;4973192;28;24576;-73
2023/08/20 06:50:00;;;;;;;9.90;7.20;;;;;;;21.22;100.00;96360.31;4954129;28;24442;-74
2023/08/20 06:52:28;;;;;;;8.57;7.32;;;;;;;21.13;100.00;96361.19;4962314;28;24441;-77
2023/08/20 06:54:55;;;;;;;10.32;6.78;;;;;;;21.27;100.00;96367.78;4973381;28;24449;-75
2023/08/20 06:57:21;;;;;;;8.90;7.32;;;;;;;21.39;100.00;96381.59;4959087;28;24442;-75
2023/08/20 06:59:48;;;;;;;8.53;6.53;;;;;;;21.47;100.00;96379.91;4954218;28;24449;-75
2023/08/20 07:02:14;;;;;;;11.00;7.63;;;;;;;21.52;100.00;96374.16;4959160;28;24959;-75
2023/08/20 07:04:41;;;;;;;12.02;6.72;;;;;;;21.70;100.00;96371.56;4962508;28;24444;-74
2023/08/20 07:07:09;;;;;;;8.57;6.85;;;;;;;21.74;100.00;96373.72;4960915;28;24453;-75
2023/08/20 07:09:38;;;;;;;10.53;7.13;;;;;;;21.79;100.00;96375.09;4969173;28;24445;-74
2023/08/20 07:12:05;;;;;;;9.73;7.33;;;;;;;22.03;100.00;96371.84;4973252;28;24452;-75
2023/08/20 07:14:31;;;;;;;10.50;7.45;;;;;;;22.37;100.00;96370.13;4961783;28;24433;-75
2023/08/20 07:16:59;;;;;;;9.95;7.22;;;;;;;22.69;100.00;96371.31;4962523;28;24430;-75
2023/08/20 07:19:26;;;;;;;11.82;7.20;;;;;;;23.17;100.00;96370.72;4953121;28;24493;-75
2023/08/20 07:21:52;;;;;;;11.15;7.28;;;;;;;23.31;100.00;96377.22;4955014;28;24439;-75
2023/08/20 07:24:25;;;;;;;8.55;6.95;;;;;;;23.64;100.00;96383.41;4972360;28;24448;-75
2023/08/20 07:26:58;;;;;;;9.00;6.55;;;;;;;23.96;100.00;96381.84;4972799;28;24544;-75
2023/08/20 07:29:25;;;;;;;8.25;6.78;;;;;;;24.30;100.00;96388.78;4972435;28;24545;-75
2023/08/20 07:31:51;;;;;;;11.63;8.20;;;;;;;24.91;100.00;96391.84;4969029;28;24433;-74
2023/08/20 07:34:18;;;;;;;12.70;6.90;;;;;;;25.03;100.00;96391.34;4953425;28;24811;-74
2023/08/20 07:36:44;;;;;;;11.40;7.10;;;;;;;24.75;100.00;96392.72;4960760;28;24438;-75
2023/08/20 07:39:11;;;;;;;7.32;6.20;;;;;;;24.79;100.00;96394.88;4970281;28;24438;-76
2023/08/20 07:41:37;;;;;;;7.90;6.80;;;;;;;24.85;100.00;96393.38;4979723;28;24452;-76
2023/08/20 07:44:06;;;;;;;10.52;7.13;;;;;;;25.02;100.00;96392.31;4975622;28;25006;-75
2023/08/20 07:46:32;;;;;;;11.07;7.28;;;;;;;25.21;100.00;96392.94;4973515;28;24454;-76
2023/08/20 07:48:59;;;;;;;9.95;6.68;;;;;;;25.14;100.00;96397.25;4980266;28;24433;-76
2023/08/20 07:51:25;;;;;;;9.70;6.50;;;;;;;25.41;100.00;96398.66;4972023;28;24996;-74
2023/08/20 07:53:52;;;;;;;15.27;7.22;;;;;;;25.38;100.00;96406.97;4973990;28;24453;-75
2023/08/20 07:56:18;;;;;;;10.30;6.35;;;;;;;25.50;100.00;96402.91;4988082;28;24440;-74
2023/08/20 07:58:45;;;;;;;9.45;6.50;;;;;;;25.70;100.00;96406.78;4983622;28;24445;-74
2023/08/20 08:01:13;;;;;;;9.95;5.90;;;;;;;25.81;100.00;96401.09;4971610;28;24441;-74
2023/08/20 08:03:41;;;;;;;9.25;6.75;;;;;;;25.70;100.00;96401.47;4975986;28;24441;-74
2023/08/20 08:06:07;;;;;;;9.00;6.20;;;;;;;26.16;100.00;96398.03;4964718;28;24450;-75
2023/08/20 08:08:34;;;;;;;9.68;6.57;;;;;;;26.13;100.00;96401.03;4962813;28;24437;-74
2023/08/20 08:11:00;;;;;;;9.00;6.07;;;;;;;26.64;100.00;96403.97;4964436;28;24441;-74
2023/08/20 08:13:27;;;;;;;9.70;5.95;;;;;;;27.13;100.00;96406.13;4967063;28;24448;-74
2023/08/20 08:15:53;;;;;;;8.50;6.68;;;;;;;27.63;100.00;96407.97;4961499;28;24464;-76
2023/08/20 08:18:21;;;;;;;9.60;6.72;;;;;;;27.92;100.00;96400.94;4963601;28;24433;-74
2023/08/20 08:20:48;;;;;;;8.32;6.22;;;;;;;28.00;100.00;96414.13;4959557;28;24494;-74
2023/08/20 08:23:14;;;;;;;8.00;6.03;;;;;;;27.98;100.00;96414.31;4971582;28;24536;-74
2023/08/20 08:25:41;;;;;;;8.90;5.55;;;;;;;28.11;100.00;96418.13;4964386;28;24441;-74
2023/08/20 08:28:08;;;;;;;9.82;5.97;;;;;;;28.33;100.00;96413.59;4967566;28;25022;-74
2023/08/20 08:30:34;;;;;;;8.50;6.07;;;;;;;28.45;100.00;96417.44;4956460;28;24437;-74
2023/08/20 08:33:01;;;;;;;10.27;5.90;;;;;;;28.48;100.00;96410.88;4969990;28;24437;-74
2023/08/20 08:35:29;;;;;;;8.32;5.40;;;;;;;28.57;100.00;96412.41;4966122;28;24438;-74
2023/08/20 08:37:55;;;;;;;10.07;5.38;;;;;;;28.72;100.00;96417.66;4952459;28;24433;-74
2023/08/20 08:40:22;;;;;;;6.32;5.28;;;;;;;29.15;100.00;96410.38;4952649;28;24445;-74
2023/08/20 08:42:50;;;;;;;7.50;5.22;;;;;;;28.46;100.00;96414.56;4960907;28;24444;-74
2023/08/20 08:45:19;;;;;;;14.07;5.90;;;;;;;28.51;100.00;96413.16;4963652;28;24440;-74
2023/08/20 08:47:46;;;;;;;16.45;5.38;;;;;;;28.66;100.00;96414.75;4969127;28;24489;-74
2023/08/20 08:50:13;;;;;;;7.88;5.72;;;;;;;28.81;100.00;96414.66;4957848;28;24452;-74
2023/08/20 08:52:43;;;;;;;7.95;5.40;;;;;;;28.44;100.00;96413.13;4960448;28;24444;-73
2023/08/20 08:55:10;;;;;;;8.65;5.80;;;;;;;28.89;100.00;96414.50;4959341;28;25042;-73
2023/08/20 08:57:36;;;;;;;6.85;5.30;;;;;;;29.04;100.00;96411.75;4962739;28;24436;-75
2023/08/20 09:00:04;;;;;;;8.10;5.40;;;;;;;29.40;100.00;96405.34;4968976;28;25031;-79
2023/08/20 09:02:30;;;;;;;10.52;5.70;;;;;;;29.30;100.00;96412.91;4972018;28;25055;-75
2023/08/20 09:04:58;;;;;;;8.70;5.95;;;;;;;29.56;100.00;96414.88;4971308;28;24494;-75
2023/08/20 09:07:24;;;;;;;9.85;6.03;;;;;;;29.81;100.00;96413.34;4971563;28;24448;-75
2023/08/20 09:09:59;;;;;;;8.98;5.30;;;;;;;29.63;100.00;96416.56;4971041;28;24417;-75
2023/08/20 09:12:27;;;;;;;8.23;5.22;;;;;;;29.61;100.00;96428.47;4971711;28;24417;-75
2023/08/20 09:14:57;;;;;;;10.13;5.60;;;;;;;29.46;100.00;96428.56;4971795;28;24825;-76
2023/08/20 09:17:26;;;;;;;10.52;5.72;;;;;;;29.77;100.00;96428.09;4971426;28;24420;-76
2023/08/20 09:19:55;;;;;;;8.35;5.55;;;;;;;29.81;100.00;96418.69;4970859;28;24414;-75
2023/08/20 09:22:21;;;;;;;8.43;4.93;;;;;;;29.88;100.00;96421.34;4971142;28;24785;-76
2023/08/20 09:24:55;;;;;;;6.53;4.78;;;;;;;29.81;100.00;96418.69;4971423;28;24473;-75
2023/08/20 09:27:22;;;;;;;7.78;4.57;;;;;;;29.57;100.00;96414.66;4971530;28;24488;-75
2023/08/20 09:29:50;;;;;;;7.18;4.97;;;;;;;29.77;100.00;96411.25;4971292;28;24424;-75
2023/08/20 09:32:19;;;;;;;11.00;5.10;;;;;;;30.19;100.00;96420.03;4971160;28;24438;-75
2023/08/20 09:34:45;;;;;;;7.90;5.20;;;;;;;30.29;100.00;96420.44;4971305;28;24427;-75
2023/08/20 09:37:14;;;;;;;7.07;4.88;;;;;;;29.99;100.00;96414.59;4971173;28;24413;-75
2023/08/20 09:39:41;;;;;;;5.95;4.53;;;;;;;30.12;100.00;96422.66;4971049;28;24564;-75
2023/08/20 09:42:10;;;;;;;12.05;4.60;;;;;;;29.71;100.00;96422.75;4971256;28;24808;-75
2023/08/20 09:44:40;;;;;;;6.47;4.40;;;;;;;29.91;100.00;96420.94;4971167;28;24969;-75
2023/08/20 09:47:08;;;;;;;5.35;4.20;;;;;;;29.81;100.00;96415.16;4971036;28;24453;-75
2023/08/20 09:49:38;;;;;;;8.20;4.30;;;;;;;30.17;100.00;96425.56;4970844;28;24422;-75
2023/08/20 09:52:06;;;;;;;6.72;4.97;;;;;;;30.31;100.00;96423.72;4972976;28;24425;-75
2023/08/20 09:54:40;;;;;;;6.70;4.43;;;;;;;30.30;100.00;96420.25;4974606;28;24941;-75
2023/08/20 09:57:13;;;;;;;7.30;4.97;;;;;;;30.55;100.00;96416.94;4974770;28;24422;-75
2023/08/20 09:59:42;;;;;;;6.45;4.55;;;;;;;30.58;98.97;96420.03;4974461;28;24413;-75
2023/08/20 10:02:12;;;;;;;7.73;4.33;;;;;;;30.49;100.00;96415.13;4991082;23;24469;-74
2023/08/20 10:04:39;;;;;;;5.72;4.22;;;;;;;30.59;96.41;96416.34;4982024;28;24428;-74
2023/08/20 10:07:06;;;;;;;8.10;4.45;;;;;;;30.65;97.75;96414.69;4974817;28;25019;-74
2023/08/20 10:09:33;;;;;;;6.05;4.20;;;;;;;30.70;100.00;96422.06;4974570;28;24430;-74
2023/08/20 10:12:02;;;;;;;10.98;5.03;;;;;;;30.02;100.00;96415.03;4959090;28;24418;-75
2023/08/20 10:14:30;;;;;;;11.35;4.70;;;;;;;30.65;100.00;96421.88;4955381;29;24430;-74
2023/08/20 10:16:57;;;;;;;13.95;5.22;;;;;;;30.90;100.00;96417.56;4955160;29;24434;-74
2023/08/20 10:19:25;;;;;;;9.20;5.05;;;;;;;30.76;100.00;96415.94;4955462;29;24433;-74
2023/08/20 10:21:53;;;;;;;10.38;5.10;;;;;;;30.92;100.00;96423.53;4955316;28;24984;-74
2023/08/20 10:24:20;;;;;;;7.78;5.07;;;;;;;30.55;100.00;96422.28;4954938;29;24414;-74
2023/08/20 10:26:48;;;;;;;6.45;5.07;;;;;;;30.10;100.00;96422.84;4955350;28;24450;-74
2023/08/20 10:29:38;;;;;;;8.20;5.30;;;;;;;29.80;100.00;96417.03;4955068;29;24426;-74
2023/08/20 10:32:07;;;;;;;8.98;5.05;;;;;;;30.11;100.00;96412.97;4955470;28;24431;-75
2023/08/20 10:34:35;;;;;;;13.15;5.25;;;;;;;29.81;100.00;96418.69;4955306;29;24422;-75
2023/08/20 10:37:03;;;;;;;6.65;4.75;;;;;;;30.32;100.00;96426.19;4955235;29;24414;-74
2023/08/20 10:39:30;;;;;;;8.05;4.75;;;;;;;30.94;100.00;96423.34;4954811;29;24949;-75
2023/08/20 10:42:09;;;;;;;6.57;4.45;;;;;;;30.89;100.00;96415.94;4954992;28;24949;-75
2023/08/20 10:45:03;;;;;;;7.07;4.95;;;;;;;31.35;100.00;96422.22;4954949;29;24477;-74
2023/08/20 10:47:43;;;;;;;11.63;4.95;;;;;;;31.30;100.00;96413.00;4955155;29;24980;-75
2023/08/20 10:50:11;;;;;;;14.23;4.55;;;;;;;31.35;100.00;96416.88;4954508;28;24441;-75
2023/08/20 10:52:40;;;;;;;6.95;4.13;;;;;;;30.77;97.28;96418.41;4954990;28;24426;-75
2023/08/20 10:55:08;;;;;;;6.37;4.10;;;;;;;30.67;100.00;96409.13;4954894;28;24469;-75
2023/08/20 10:57:35;;;;;;;8.50;4.60;;;;;;;31.29;100.00;96416.66;4954907;29;24473;-75
2023/08/20 11:00:11;;;;;;;5.82;4.28;;;;;;;30.93;100.00;96417.16;4954461;28;24433;-75
2023/08/20 11:02:37;;;;;;;6.60;4.00;;;;;;;31.04;79.02;96416.53;4954074;28;24808;-74
2023/08/20 11:05:05;;;;;;;15.93;4.75;;;;;;;31.14;74.13;96409.91;4954772;29;24433;-75
2023/08/20 11:07:34;;;;;;;4.88;3.88;;;;;;;30.74;70.67;96407.25;4954962;28;24501;-75
2023/08/20 11:10:01;;;;;;;9.18;4.47;;;;;;;30.56;72.05;96411.41;4954379;28;24422;-74
2023/08/20 11:12:30;;;;;;;11.43;4.32;;;;;;;30.61;72.14;96408.09;4954850;29;24774;-75
2023/08/20 11:15:02;;;;;;;9.18;4.25;;;;;;;30.67;69.15;96407.28;4954170;29;24938;-75
2023/08/20 11:17:29;;;;;;;6.40;4.30;;;;;;;31.03;76.90;96406.84;4954323;29;24462;-75
2023/08/20 11:19:56;;;;;;;7.30;4.43;;;;;;;31.30;77.27;96404.97;4953934;29;25078;-74
2023/08/20 11:22:23;;;;;;;9.07;4.60;;;;;;;31.08;72.51;96400.88;4954126;28;24422;-75
2023/08/20 11:24:49;;;;;;;6.95;4.50;;;;;;;30.69;71.93;96404.41;4954402;29;24433;-75
2023/08/20 11:27:16;;;;;;;7.78;4.57;;;;;;;30.37;74.76;96405.03;4954245;29;24445;-75
2023/08/20 11:29:43;;;;;;;6.20;4.68;;;;;;;30.66;78.13;96405.63;4953956;28;24489;-75